createdAt,value
2022-10-22T00:00:26.234Z,15.38
2022-10-22T00:05:58.093Z,15.31
2022-10-22T00:11:34.179Z,15.35
2022-10-22T00:17:06.922Z,15.18
2022-10-22T00:22:38.017Z,15.07
2022-10-22T00:28:09.173Z,15.39
2022-10-22T00:33:41.097Z,15.27
2022-10-22T00:39:12.994Z,15.13
2022-10-22T00:44:44.655Z,14.94
2022-10-22T00:50:16.293Z,14.97
2022-10-22T00:55:47.798Z,15.09
2022-10-22T01:01:19.536Z,15.01
2022-10-22T01:06:51.457Z,14.93
2022-10-22T01:12:27.585Z,15.04
2022-10-22T01:17:59.065Z,14.95
2022-10-22T01:23:30.753Z,14.98
2022-10-22T01:29:02.490Z,14.9
2022-10-22T01:34:34.444Z,15.04
2022-10-22T01:40:06.297Z,14.97
2022-10-22T01:45:37.840Z,14.99
2022-10-22T01:51:09.390Z,15.25
2022-10-22T01:56:41.107Z,15.31
2022-10-22T02:02:13.221Z,15.32
2022-10-22T02:07:45.038Z,15.61
2022-10-22T02:13:20.850Z,15.45
2022-10-22T02:18:52.593Z,15.47
2022-10-22T02:24:24.327Z,15.41
2022-10-22T02:29:56.074Z,15.51
2022-10-22T02:35:27.760Z,15.37
2022-10-22T02:40:59.485Z,15.46
2022-10-22T02:46:31.228Z,15.69
2022-10-22T02:52:02.718Z,15.82
2022-10-22T02:57:34.454Z,15.62
2022-10-22T03:03:06.431Z,15.66
2022-10-22T03:08:37.956Z,15.76
2022-10-22T03:14:14.262Z,15.53
2022-10-22T03:19:45.951Z,15.57
2022-10-22T03:25:17.930Z,15.62
2022-10-22T03:30:49.157Z,15.88
2022-10-22T03:36:21.072Z,15.88
2022-10-22T03:41:52.833Z,15.66
2022-10-22T03:47:24.399Z,15.66
2022-10-22T03:52:56.103Z,15.65
2022-10-22T03:58:28.109Z,15.78
2022-10-22T04:03:59.744Z,15.65
2022-10-22T04:09:31.540Z,15.59
2022-10-22T04:15:07.377Z,15.29
2022-10-22T04:20:39.330Z,15.23
2022-10-22T04:26:10.831Z,15.31
2022-10-22T04:31:42.705Z,15.49
2022-10-22T04:37:14.418Z,15.47
2022-10-22T04:42:46.194Z,15.14
2022-10-22T04:48:17.710Z,15.24
2022-10-22T04:53:49.458Z,15.35
2022-10-22T04:59:21.345Z,15.21
2022-10-22T05:04:53.122Z,15.05
2022-10-22T05:10:24.618Z,14.97
2022-10-22T05:16:00.974Z,14.87
2022-10-22T05:21:32.508Z,14.95
2022-10-22T05:27:04.210Z,14.88
2022-10-22T05:32:36.234Z,14.85
2022-10-22T05:38:07.650Z,14.86
2022-10-22T05:43:39.346Z,14.81
2022-10-22T05:49:11.093Z,14.87
2022-10-22T05:54:42.988Z,15.05
2022-10-22T06:00:16.401Z,14.79
2022-10-22T06:05:46.432Z,15.0
2022-10-22T06:11:18.216Z,14.95
2022-10-22T06:16:54.376Z,15.0
2022-10-22T06:22:26.041Z,15.03
2022-10-22T06:27:57.600Z,15.05
2022-10-22T06:33:29.321Z,15.05
2022-10-22T06:39:01.035Z,15.21
2022-10-22T06:44:32.728Z,15.46
2022-10-22T06:50:04.722Z,15.53
2022-10-22T06:55:36.432Z,15.67
2022-10-22T07:01:08.234Z,15.69
2022-10-22T07:06:39.709Z,15.82
2022-10-22T07:12:11.397Z,15.96
2022-10-22T07:17:47.626Z,16.0
2022-10-22T07:23:19.235Z,16.11
2022-10-22T07:28:50.925Z,16.43
2022-10-22T07:34:22.703Z,16.41
2022-10-22T07:39:54.678Z,16.35
2022-10-22T07:45:26.173Z,16.56
2022-10-22T07:50:57.881Z,16.38
2022-10-22T07:56:29.597Z,16.34
2022-10-22T08:02:01.352Z,16.39
2022-10-22T08:07:33.063Z,16.47
2022-10-22T08:13:04.808Z,16.73
2022-10-22T08:18:40.882Z,16.94
2022-10-22T08:24:12.735Z,17.16
2022-10-22T08:29:44.373Z,17.21
2022-10-22T08:35:16.909Z,17.75
2022-10-22T08:46:19.522Z,17.86
2022-10-22T08:51:51.257Z,18.03
2022-10-22T08:57:22.973Z,17.92
2022-10-22T09:02:54.889Z,18.07
2022-10-22T09:08:26.426Z,18.15
2022-10-22T09:13:58.129Z,18.28
2022-10-22T09:19:34.345Z,18.32
2022-10-22T09:25:05.977Z,18.77
2022-10-22T09:30:37.991Z,18.74
2022-10-22T09:36:09.622Z,18.86
2022-10-22T09:41:41.123Z,19.06
2022-10-22T09:47:13.071Z,18.97
2022-10-22T09:52:44.777Z,19.48
2022-10-22T09:58:16.305Z,19.57
2022-10-22T10:03:48.058Z,19.8
2022-10-22T10:09:19.771Z,19.73
2022-10-22T10:14:51.580Z,19.94
2022-10-22T10:20:27.524Z,19.6
2022-10-22T10:25:59.231Z,20.0
2022-10-22T10:31:31.161Z,19.8
2022-10-22T10:37:02.740Z,20.13
2022-10-22T10:42:34.473Z,20.37
2022-10-22T10:48:06.161Z,20.67
2022-10-22T10:53:37.895Z,20.61
2022-10-22T10:59:09.699Z,20.77
2022-10-22T11:04:41.352Z,21.14
2022-10-22T11:10:13.112Z,21.11
2022-10-22T11:15:44.939Z,20.82
2022-10-22T11:21:20.866Z,21.19
2022-10-22T11:26:52.845Z,21.59
2022-10-22T11:32:24.353Z,21.46
2022-10-22T11:37:56.309Z,21.9
2022-10-22T11:43:27.832Z,21.65
2022-10-22T11:48:59.549Z,21.69
2022-10-22T11:54:31.246Z,22.16
2022-10-22T12:00:02.957Z,22.38
2022-10-22T12:05:34.707Z,21.83
2022-10-22T12:11:06.442Z,22.09
2022-10-22T12:16:55.010Z,21.76
2022-10-22T12:22:14.370Z,21.55
2022-10-22T12:27:46.135Z,22.27
2022-10-22T12:33:17.695Z,22.39
2022-10-22T12:38:49.458Z,22.21
2022-10-22T12:44:21.164Z,21.52
2022-10-22T12:49:52.894Z,21.94
2022-10-22T12:55:24.796Z,21.96
2022-10-22T13:00:56.401Z,22.35
2022-10-22T13:06:28.062Z,22.07
2022-10-22T13:11:59.777Z,22.01
2022-10-22T13:17:31.522Z,21.92
2022-10-22T13:23:09.598Z,22.34
2022-10-22T13:28:41.330Z,22.47
2022-10-22T13:34:15.126Z,22.29
2022-10-22T13:39:44.766Z,22.4
2022-10-22T13:45:16.491Z,22.6
2022-10-22T13:50:48.207Z,22.43
2022-10-22T13:56:19.938Z,22.45
2022-10-22T14:01:51.675Z,22.41
2022-10-22T14:07:23.378Z,22.32
2022-10-22T14:12:55.101Z,22.54
2022-10-22T14:18:26.834Z,22.13
2022-10-22T14:24:02.971Z,22.32
2022-10-22T14:29:34.646Z,22.38
2022-10-22T14:35:06.430Z,22.12
2022-10-22T14:40:38.142Z,22.18
2022-10-22T14:46:09.867Z,22.3
2022-10-22T14:51:41.622Z,22.11
2022-10-22T14:57:13.347Z,22.08
2022-10-22T15:02:45.174Z,21.77
2022-10-22T15:08:16.982Z,21.78
2022-10-22T15:13:48.514Z,21.94
2022-10-22T15:19:20.207Z,21.65
2022-10-22T15:24:58.344Z,21.36
2022-10-22T15:30:30.545Z,21.47
2022-10-22T15:36:01.778Z,21.64
2022-10-22T15:41:33.681Z,21.3
2022-10-22T15:47:05.311Z,21.38
2022-10-22T15:52:36.945Z,21.3
2022-10-22T15:58:08.825Z,21.0
2022-10-22T16:03:40.929Z,20.74
2022-10-22T16:09:12.305Z,20.52
2022-10-22T16:14:43.827Z,20.34
2022-10-22T16:20:15.610Z,20.09
2022-10-22T16:25:51.695Z,19.9
2022-10-22T16:31:23.585Z,19.72
2022-10-22T16:36:55.277Z,19.65
2022-10-22T16:42:27.043Z,19.46
2022-10-22T16:47:58.649Z,19.41
2022-10-22T16:53:30.440Z,19.34
2022-10-22T16:59:02.109Z,19.26
2022-10-22T17:04:33.930Z,19.19
2022-10-22T17:10:05.621Z,19.21
2022-10-22T17:15:37.397Z,19.15
2022-10-22T17:21:08.994Z,19.04
2022-10-22T17:26:47.202Z,19.04
2022-10-22T17:32:18.792Z,18.94
2022-10-22T17:37:50.501Z,18.82
2022-10-22T17:43:22.346Z,18.69
2022-10-22T17:48:54.120Z,18.65
2022-10-22T17:54:25.720Z,18.56
2022-10-22T17:59:57.600Z,18.47
2022-10-22T18:05:29.339Z,18.46
2022-10-22T18:11:01.096Z,18.49
2022-10-22T18:16:32.796Z,18.47
2022-10-22T18:22:04.570Z,18.39
2022-10-22T18:27:40.917Z,18.31
2022-10-22T18:33:12.210Z,18.26
2022-10-22T18:38:44.038Z,18.26
2022-10-22T18:44:15.617Z,18.24
2022-10-22T18:49:47.528Z,18.14
2022-10-22T18:55:19.283Z,18.04
2022-10-22T19:00:51.003Z,17.92
2022-10-22T19:06:22.635Z,17.95
2022-10-22T19:11:54.460Z,17.91
2022-10-22T19:17:26.132Z,17.81
2022-10-22T19:22:57.774Z,17.78
2022-10-22T19:28:33.849Z,17.83
2022-10-22T19:34:05.710Z,17.86
2022-10-22T19:39:37.300Z,17.7
2022-10-22T19:45:09.124Z,17.62
2022-10-22T19:50:40.731Z,17.69
2022-10-22T19:56:12.456Z,17.59
2022-10-22T20:01:44.163Z,17.64
2022-10-22T20:07:15.963Z,17.59
2022-10-22T20:12:47.618Z,17.59
2022-10-22T20:18:19.430Z,17.51
2022-10-22T20:23:51.190Z,17.47
2022-10-22T20:29:27.287Z,17.51
2022-10-22T20:34:58.925Z,17.43
2022-10-22T20:40:30.798Z,17.36
2022-10-22T20:46:02.466Z,17.3
2022-10-22T20:51:34.125Z,17.4
2022-10-22T20:57:05.859Z,17.35
2022-10-22T21:02:37.682Z,17.18
2022-10-22T21:08:09.494Z,17.2
2022-10-22T21:13:41.030Z,17.05
2022-10-22T21:19:12.766Z,17.17
2022-10-22T21:24:44.642Z,17.22
2022-10-22T21:30:22.722Z,17.11
2022-10-22T21:35:54.342Z,17.04
2022-10-22T21:41:26.257Z,17.08
2022-10-22T21:46:57.879Z,16.98
2022-10-22T21:52:29.493Z,16.74
2022-10-22T21:58:01.233Z,16.81
2022-10-22T22:03:33.069Z,16.75
2022-10-22T22:09:04.878Z,16.82
2022-10-22T22:14:36.565Z,16.9
2022-10-22T22:20:08.286Z,16.9
2022-10-22T22:25:39.893Z,16.9
2022-10-22T22:31:16.018Z,17.0
2022-10-22T22:36:47.868Z,17.0
2022-10-22T22:42:19.602Z,17.0
2022-10-22T22:47:51.186Z,16.98
2022-10-22T22:53:23.042Z,16.74
2022-10-22T22:58:54.612Z,16.61
2022-10-22T23:04:26.447Z,16.49
2022-10-22T23:09:58.266Z,16.54
2022-10-22T23:15:29.778Z,16.68
2022-10-22T23:21:01.558Z,16.53
2022-10-22T23:26:33.279Z,16.55
2022-10-22T23:32:11.629Z,16.61
2022-10-22T23:37:43.457Z,16.65
2022-10-22T23:43:14.785Z,16.51
2022-10-22T23:48:46.515Z,16.49
2022-10-22T23:54:18.255Z,16.47
2022-10-22T23:59:50.132Z,16.45
